createdAt,value
2022-09-20T00:02:02.878Z,98313.00
2022-09-20T00:04:32.804Z,98320.00
2022-09-20T00:07:02.697Z,98316.00
2022-09-20T00:09:35.176Z,98313.00
2022-09-20T00:12:05.360Z,98322.00
2022-09-20T00:14:35.309Z,98314.00
2022-09-20T00:17:05.213Z,98324.00
2022-09-20T00:19:35.085Z,98325.00
2022-09-20T00:22:04.908Z,98326.00
2022-09-20T00:24:37.566Z,98322.00
2022-09-20T00:27:07.911Z,98322.00
2022-09-20T00:29:37.742Z,98319.00
2022-09-20T00:32:08.057Z,98317.00
2022-09-20T00:34:50.360Z,98321.00
2022-09-20T00:37:20.509Z,98319.00
2022-09-20T00:39:52.939Z,98315.00
2022-09-20T00:42:22.784Z,98320.00
2022-09-20T00:44:59.116Z,98322.00
2022-09-20T00:47:36.985Z,98320.00
2022-09-20T00:50:16.859Z,98311.00
2022-09-20T00:52:48.614Z,98314.00
2022-09-20T00:55:22.410Z,98324.00
2022-09-20T00:57:52.459Z,98321.00
2022-09-20T01:00:22.510Z,98320.00
2022-09-20T01:02:55.943Z,98323.00
2022-09-20T01:05:26.147Z,98335.00
2022-09-20T01:07:57.011Z,98337.00
2022-09-20T01:10:29.463Z,98336.00
2022-09-20T01:12:59.323Z,98335.00
2022-09-20T01:15:31.380Z,98337.00
2022-09-20T01:18:01.983Z,98335.00
2022-09-20T01:20:35.023Z,98335.00
2022-09-20T01:23:28.566Z,98349.00
2022-09-20T01:26:30.838Z,98338.00
2022-09-20T01:29:08.725Z,98330.00
2022-09-20T01:31:43.146Z,98335.00
2022-09-20T01:34:15.737Z,98328.00
2022-09-20T01:36:48.433Z,98330.00
2022-09-20T01:39:23.696Z,98327.00
2022-09-20T01:41:56.811Z,98324.00
2022-09-20T01:44:33.983Z,98324.00
2022-09-20T01:47:08.656Z,98326.00
2022-09-20T01:49:47.085Z,98318.00
2022-09-20T01:52:31.016Z,98326.00
2022-09-20T01:55:22.509Z,98313.00
2022-09-20T01:58:37.013Z,98318.00
2022-09-20T02:01:49.257Z,98318.00
2022-09-20T02:04:45.733Z,98325.00
2022-09-20T02:07:54.968Z,98326.00
2022-09-20T02:10:42.285Z,98330.00
2022-09-20T02:13:14.544Z,98329.00
2022-09-20T02:16:15.343Z,98323.00
2022-09-20T02:18:57.343Z,98327.00
2022-09-20T02:21:35.070Z,98328.00
2022-09-20T02:24:13.903Z,98332.00
2022-09-20T02:26:48.183Z,98332.00
2022-09-20T02:29:28.990Z,98335.00
2022-09-20T02:32:27.000Z,98342.00
2022-09-20T02:35:19.326Z,98337.00
2022-09-20T02:38:00.554Z,98334.00
2022-09-20T02:40:44.512Z,98339.00
2022-09-20T02:43:20.865Z,98343.00
2022-09-20T02:45:55.616Z,98346.00
2022-09-20T02:48:30.736Z,98341.00
2022-09-20T02:51:07.086Z,98348.00
2022-09-20T02:53:46.429Z,98344.00
2022-09-20T02:56:16.980Z,98334.00
2022-09-20T02:58:54.878Z,98338.00
2022-09-20T03:01:39.080Z,98333.00
2022-09-20T03:04:24.131Z,98335.00
2022-09-20T03:06:58.558Z,98342.00
2022-09-20T03:09:37.030Z,98341.00
2022-09-20T03:12:13.968Z,98345.00
2022-09-20T03:14:48.482Z,98352.00
2022-09-20T03:17:24.726Z,98348.00
2022-09-20T03:20:10.390Z,98353.00
2022-09-20T03:22:49.226Z,98350.00
2022-09-20T03:25:40.902Z,98360.00
2022-09-20T03:28:25.305Z,98361.00
2022-09-20T03:31:07.704Z,98368.00
2022-09-20T03:33:46.604Z,98360.00
2022-09-20T03:36:40.709Z,98366.00
2022-09-20T03:39:24.196Z,98362.00
2022-09-20T03:42:08.703Z,98361.00
2022-09-20T03:45:09.561Z,98360.00
2022-09-20T03:47:52.857Z,98359.00
2022-09-20T03:50:32.037Z,98358.00
2022-09-20T03:53:23.186Z,98371.00
2022-09-20T03:56:16.551Z,98373.00
2022-09-20T03:59:00.198Z,98367.00
2022-09-20T04:01:48.855Z,98369.00
2022-09-20T04:04:27.650Z,98367.00
2022-09-20T04:07:09.040Z,98375.00
2022-09-20T04:09:54.058Z,98365.00
2022-09-20T04:12:30.934Z,98371.00
2022-09-20T04:15:12.373Z,98366.00
2022-09-20T04:17:48.726Z,98370.00
2022-09-20T04:20:21.328Z,98365.00
2022-09-20T04:22:54.053Z,98360.00
2022-09-20T04:25:27.807Z,98365.00
2022-09-20T04:28:01.769Z,98371.00
2022-09-20T04:30:37.709Z,98373.00
2022-09-20T04:33:10.400Z,98385.00
2022-09-20T04:36:00.966Z,98382.00
2022-09-20T04:38:31.973Z,98375.00
2022-09-20T04:41:21.832Z,98371.00
2022-09-20T04:44:23.117Z,98379.00
2022-09-20T04:47:25.553Z,98381.00
2022-09-20T04:50:26.034Z,98373.00
2022-09-20T04:53:36.410Z,98381.00
2022-09-20T04:56:15.022Z,98384.00
2022-09-20T04:58:52.298Z,98390.00
2022-09-20T05:01:49.311Z,98393.00
2022-09-20T05:05:08.737Z,98405.00
2022-09-20T05:08:08.626Z,98405.00
2022-09-20T05:10:58.790Z,98389.00
2022-09-20T05:13:34.681Z,98397.00
2022-09-20T05:16:07.906Z,98388.00
2022-09-20T05:19:19.651Z,98410.00
2022-09-20T05:22:01.031Z,98402.00
2022-09-20T05:24:45.044Z,98398.00
2022-09-20T05:27:30.324Z,98402.00
2022-09-20T05:30:06.621Z,98400.00
2022-09-20T05:32:42.787Z,98422.00
2022-09-20T05:35:20.113Z,98409.00
2022-09-20T05:37:54.548Z,98412.00
2022-09-20T05:40:31.773Z,98415.00
2022-09-20T05:43:11.896Z,98422.00
2022-09-20T05:45:56.188Z,98423.00
2022-09-20T05:48:32.267Z,98421.00
2022-09-20T05:51:04.037Z,98416.00
2022-09-20T05:54:03.758Z,98426.00
2022-09-20T05:56:40.364Z,98425.00
2022-09-20T05:59:28.481Z,98433.00
2022-09-20T06:02:13.391Z,98438.00
2022-09-20T06:04:48.486Z,98433.00
2022-09-20T06:07:25.821Z,98430.00
2022-09-20T06:10:26.210Z,98440.00
2022-09-20T06:13:01.880Z,98431.00
2022-09-20T06:15:39.014Z,98442.00
2022-09-20T06:18:23.939Z,98441.00
2022-09-20T06:21:00.353Z,98446.00
2022-09-20T06:23:30.776Z,98454.00
2022-09-20T06:26:02.951Z,98449.00
2022-09-20T06:28:35.878Z,98445.00
2022-09-20T06:31:11.512Z,98465.00
2022-09-20T06:33:47.241Z,98457.00
2022-09-20T06:36:32.525Z,98461.00
2022-09-20T06:39:21.961Z,98461.00
2022-09-20T06:41:52.384Z,98457.00
2022-09-20T06:44:22.220Z,98447.00
2022-09-20T06:46:55.862Z,98451.00
2022-09-20T06:49:29.279Z,98450.00
2022-09-20T06:51:59.326Z,98451.00
2022-09-20T06:54:29.863Z,98462.00
2022-09-20T06:56:59.763Z,98460.00
2022-09-20T06:59:29.596Z,98455.00
2022-09-20T07:02:02.411Z,98465.00
2022-09-20T07:04:32.917Z,98466.00
2022-09-20T07:07:07.335Z,98475.00
2022-09-20T07:09:39.074Z,98468.00
2022-09-20T07:12:12.206Z,98478.00
2022-09-20T07:14:42.847Z,98478.00
2022-09-20T07:17:15.331Z,98478.00
2022-09-20T07:19:45.172Z,98479.00
2022-09-20T07:22:15.009Z,98483.00
2022-09-20T07:24:45.049Z,98481.00
2022-09-20T07:27:15.130Z,98489.00
2022-09-20T07:29:46.254Z,98491.00
2022-09-20T07:32:18.704Z,98499.00
2022-09-20T07:34:48.703Z,98500.00
2022-09-20T07:37:20.334Z,98501.00
2022-09-20T07:39:50.257Z,98502.00
2022-09-20T07:42:20.422Z,98511.00
2022-09-20T07:44:50.922Z,98515.00
2022-09-20T07:47:25.389Z,98517.00
2022-09-20T07:49:55.602Z,98513.00
2022-09-20T07:52:25.487Z,98520.00
2022-09-20T07:54:56.211Z,98517.00
2022-09-20T07:57:26.534Z,98523.00
2022-09-20T07:59:56.600Z,98527.00
2022-09-20T08:02:29.153Z,98526.00
2022-09-20T08:04:59.295Z,98527.00
2022-09-20T08:07:29.132Z,98534.00
2022-09-20T08:09:59.527Z,98537.00
2022-09-20T08:15:19.985Z,98542.00
2022-09-20T08:17:52.968Z,98548.00
2022-09-20T08:20:22.853Z,98542.00
2022-09-20T08:23:19.301Z,98549.00
2022-09-20T08:25:44.488Z,98549.00
2022-09-20T08:28:14.287Z,98542.00
2022-09-20T08:30:44.109Z,98546.00
2022-09-20T08:33:16.574Z,98542.00
2022-09-20T08:35:46.378Z,98546.00
2022-09-20T08:41:08.872Z,98542.00
2022-09-20T08:43:45.626Z,98542.00
2022-09-20T08:46:23.286Z,98547.00
2022-09-20T08:48:56.184Z,98551.00
2022-09-20T08:51:29.402Z,98555.00
2022-09-20T08:53:59.732Z,98564.00
2022-09-20T08:56:32.740Z,98557.00
2022-09-20T08:59:02.634Z,98561.00
2022-09-20T09:01:33.582Z,98569.00
2022-09-20T09:04:15.709Z,98568.00
2022-09-20T09:06:46.994Z,98571.00
2022-09-20T09:09:23.331Z,98568.00
2022-09-20T09:11:53.829Z,98569.00
2022-09-20T09:14:40.932Z,98564.00
2022-09-20T09:17:12.137Z,98571.00
2022-09-20T09:19:52.575Z,98570.00
2022-09-20T09:22:29.539Z,98574.00
2022-09-20T09:25:32.361Z,98569.00
2022-09-20T09:28:06.143Z,98562.00
2022-09-20T09:30:37.713Z,98566.00
2022-09-20T09:33:26.811Z,98560.00
2022-09-20T09:36:04.041Z,98553.00
2022-09-20T09:38:35.155Z,98554.00
2022-09-20T09:41:08.577Z,98553.00
2022-09-20T09:43:40.708Z,98551.00
2022-09-20T09:46:29.591Z,98549.00
2022-09-20T09:49:16.959Z,98550.00
2022-09-20T09:52:04.838Z,98548.00
2022-09-20T09:54:36.810Z,98542.00
2022-09-20T09:57:26.397Z,98548.00
2022-09-20T10:00:17.486Z,98548.00
2022-09-20T10:03:03.709Z,98547.00
2022-09-20T10:05:36.431Z,98551.00
2022-09-20T10:08:19.601Z,98546.00
2022-09-20T10:11:01.234Z,98547.00
2022-09-20T10:13:40.450Z,98559.00
2022-09-20T10:16:17.737Z,98544.00
2022-09-20T10:18:54.325Z,98544.00
2022-09-20T10:21:39.183Z,98547.00
2022-09-20T10:24:22.320Z,98544.00
2022-09-20T10:27:05.218Z,98539.00
2022-09-20T10:29:46.994Z,98546.00
2022-09-20T10:32:27.954Z,98553.00
2022-09-20T10:35:10.864Z,98556.00
2022-09-20T10:37:50.354Z,98555.00
2022-09-20T10:40:51.148Z,98549.00
2022-09-20T10:43:28.415Z,98553.00
2022-09-20T10:46:31.302Z,98542.00
2022-09-20T10:49:05.555Z,98545.00
2022-09-20T10:51:45.744Z,98537.00
2022-09-20T10:54:29.267Z,98552.00
2022-09-20T10:57:10.845Z,98551.00
2022-09-20T10:59:46.425Z,98552.00
2022-09-20T11:02:23.722Z,98558.00
2022-09-20T11:05:06.064Z,98556.00
2022-09-20T11:07:46.773Z,98558.00
2022-09-20T11:10:20.347Z,98546.00
2022-09-20T11:12:55.398Z,98548.00
2022-09-20T11:15:28.546Z,98558.00
2022-09-20T11:18:04.796Z,98560.00
2022-09-20T11:20:38.767Z,98563.00
2022-09-20T11:23:13.719Z,98569.00
2022-09-20T11:25:48.631Z,98568.00
2022-09-20T11:28:23.604Z,98560.00
2022-09-20T11:31:00.366Z,98562.00
2022-09-20T11:33:32.697Z,98549.00
2022-09-20T11:36:05.760Z,98565.00
2022-09-20T11:38:39.117Z,98553.00
2022-09-20T11:41:14.669Z,98565.00
2022-09-20T11:43:48.053Z,98569.00
2022-09-20T11:46:22.752Z,98559.00
2022-09-20T11:48:56.019Z,98566.00
2022-09-20T11:52:10.036Z,98566.00
2022-09-20T11:55:15.490Z,98561.00
2022-09-20T11:57:45.419Z,98571.00
2022-09-20T12:00:20.242Z,98554.00
2022-09-20T12:02:52.310Z,98564.00
2022-09-20T12:05:32.307Z,98574.00
2022-09-20T12:08:03.388Z,98560.00
2022-09-20T12:10:35.617Z,98563.00
2022-09-20T12:13:07.102Z,98571.00
2022-09-20T12:15:41.973Z,98563.00
2022-09-20T12:18:19.008Z,98576.00
2022-09-20T12:21:20.859Z,98574.00
2022-09-20T12:24:23.343Z,98572.00
2022-09-20T12:26:56.381Z,98568.00
2022-09-20T12:30:16.913Z,98582.00
2022-09-20T12:32:56.422Z,98595.00
2022-09-20T12:36:01.836Z,98597.00
2022-09-20T12:38:37.706Z,98590.00
2022-09-20T12:41:12.060Z,98587.00
2022-09-20T12:43:51.434Z,98581.00
2022-09-20T12:46:24.608Z,98577.00
2022-09-20T12:49:38.507Z,98583.00
2022-09-20T12:52:20.826Z,98588.00
2022-09-20T12:54:59.243Z,98594.00
2022-09-20T12:57:35.738Z,98602.00
2022-09-20T13:00:09.018Z,98591.00
2022-09-20T13:03:00.887Z,98602.00
2022-09-20T13:05:39.455Z,98589.00
2022-09-20T13:08:16.741Z,98581.00
2022-09-20T13:10:49.968Z,98592.00
2022-09-20T13:13:34.996Z,98589.00
2022-09-20T13:16:10.028Z,98592.00
2022-09-20T13:18:40.427Z,98592.00
2022-09-20T13:21:12.962Z,98610.00
2022-09-20T13:23:49.742Z,98604.00
2022-09-20T13:26:20.189Z,98611.00
2022-09-20T13:28:52.656Z,98598.00
2022-09-20T13:31:36.106Z,98605.00
2022-09-20T13:34:22.461Z,98603.00
2022-09-20T13:36:58.358Z,98603.00
2022-09-20T13:39:32.589Z,98605.00
2022-09-20T13:42:05.113Z,98604.00
2022-09-20T13:44:37.522Z,98599.00
2022-09-20T13:47:25.072Z,98598.00
2022-09-20T13:49:55.250Z,98588.00
2022-09-20T13:52:34.054Z,98613.00
2022-09-20T13:55:21.834Z,98605.00
2022-09-20T13:57:51.724Z,98618.00
2022-09-20T14:00:21.894Z,98615.00
2022-09-20T14:02:53.435Z,98602.00
2022-09-20T14:05:25.352Z,98622.00
2022-09-20T14:07:57.993Z,98602.00
2022-09-20T14:10:37.182Z,98622.00
2022-09-20T14:13:08.142Z,98610.00
2022-09-20T14:15:41.664Z,98617.00
2022-09-20T14:18:16.545Z,98617.00
2022-09-20T14:20:46.850Z,98622.00
2022-09-20T14:23:28.234Z,98633.00
2022-09-20T14:26:25.800Z,98639.00
2022-09-20T14:28:55.683Z,98637.00
2022-09-20T14:31:28.974Z,98645.00
2022-09-20T14:34:01.081Z,98636.00
2022-09-20T14:36:32.319Z,98643.00
2022-09-20T14:39:06.951Z,98653.00
2022-09-20T14:41:39.024Z,98642.00
2022-09-20T14:44:26.607Z,98647.00
2022-09-20T14:46:57.776Z,98653.00
2022-09-20T14:49:36.079Z,98646.00
2022-09-20T14:52:32.787Z,98644.00
2022-09-20T14:55:06.608Z,98650.00
2022-09-20T14:57:36.860Z,98657.00
2022-09-20T15:00:09.098Z,98649.00
2022-09-20T15:02:39.221Z,98657.00
2022-09-20T15:05:18.648Z,98655.00
2022-09-20T15:07:48.488Z,98659.00
2022-09-20T15:10:21.276Z,98652.00
2022-09-20T15:12:51.191Z,98656.00
2022-09-20T15:15:21.740Z,98666.00
2022-09-20T15:17:51.750Z,98666.00
2022-09-20T15:20:24.843Z,98662.00
2022-09-20T15:22:55.552Z,98664.00
2022-09-20T15:25:30.045Z,98655.00
2022-09-20T15:27:59.903Z,98660.00
2022-09-20T15:30:30.508Z,98659.00
2022-09-20T15:33:03.040Z,98661.00
2022-09-20T15:35:33.163Z,98660.00
2022-09-20T15:38:03.022Z,98667.00
2022-09-20T15:40:35.644Z,98674.00
2022-09-20T15:43:05.605Z,98673.00
2022-09-20T15:45:35.436Z,98671.00
2022-09-20T15:48:05.773Z,98676.00
2022-09-20T15:50:35.595Z,98668.00
2022-09-20T15:53:05.728Z,98674.00
2022-09-20T15:55:39.676Z,98668.00
2022-09-20T15:58:09.926Z,98675.00
2022-09-20T16:00:40.656Z,98673.00
2022-09-20T16:03:10.492Z,98667.00
2022-09-20T16:05:40.340Z,98678.00
2022-09-20T16:08:10.233Z,98683.00
2022-09-20T16:10:42.662Z,98681.00
2022-09-20T16:13:12.506Z,98679.00
2022-09-20T16:15:42.653Z,98683.00
2022-09-20T16:18:24.924Z,98689.00
2022-09-20T16:20:54.781Z,98691.00
2022-09-20T16:23:26.098Z,98689.00
2022-09-20T16:25:58.660Z,98688.00
2022-09-20T16:28:28.471Z,98698.00
2022-09-20T16:30:59.452Z,98691.00
2022-09-20T16:33:29.480Z,98703.00
2022-09-20T16:35:59.531Z,98697.00
2022-09-20T16:38:29.611Z,98695.00
2022-09-20T16:41:02.024Z,98712.00
2022-09-20T16:43:34.066Z,98710.00
2022-09-20T16:46:04.224Z,98710.00
2022-09-20T16:48:34.122Z,98716.00
2022-09-20T16:51:03.974Z,98726.00
2022-09-20T16:53:33.774Z,98729.00
2022-09-20T16:56:07.860Z,98723.00
2022-09-20T16:58:37.836Z,98727.00
2022-09-20T17:01:09.017Z,98732.00
2022-09-20T17:03:40.858Z,98732.00
2022-09-20T17:06:11.626Z,98748.00
2022-09-20T17:08:42.117Z,98744.00
2022-09-20T17:11:16.253Z,98746.00
2022-09-20T17:13:47.325Z,98749.00
2022-09-20T17:16:18.435Z,98755.00
2022-09-20T17:18:48.446Z,98766.00
2022-09-20T17:21:19.564Z,98768.00
2022-09-20T17:23:52.394Z,98765.00
2022-09-20T17:26:28.250Z,98762.00
2022-09-20T17:28:59.113Z,98766.00
2022-09-20T17:31:34.158Z,98769.00
2022-09-20T17:34:05.029Z,98777.00
2022-09-20T17:36:36.684Z,98777.00
2022-09-20T17:39:06.989Z,98776.00
2022-09-20T17:41:40.541Z,98791.00
2022-09-20T17:44:12.234Z,98794.00
2022-09-20T17:46:43.145Z,98800.00
2022-09-20T17:49:14.440Z,98798.00
2022-09-20T17:51:46.024Z,98808.00
2022-09-20T17:54:16.588Z,98807.00
2022-09-20T17:56:50.483Z,98810.00
2022-09-20T17:59:21.492Z,98817.00
2022-09-20T18:01:54.544Z,98816.00
2022-09-20T18:04:25.290Z,98814.00
2022-09-20T18:06:56.168Z,98826.00
2022-09-20T18:09:28.329Z,98826.00
2022-09-20T18:12:00.832Z,98823.00
2022-09-20T18:14:32.145Z,98826.00
2022-09-20T18:17:04.156Z,98823.00
2022-09-20T18:19:35.914Z,98823.00
2022-09-20T18:22:06.227Z,98833.00
2022-09-20T18:24:36.085Z,98827.00
2022-09-20T18:27:08.638Z,98842.00
2022-09-20T18:29:38.485Z,98836.00
2022-09-20T18:32:09.027Z,98837.00
2022-09-20T18:34:39.181Z,98845.00
2022-09-20T18:37:12.468Z,98845.00
2022-09-20T18:39:44.362Z,98847.00
2022-09-20T18:42:16.835Z,98848.00
2022-09-20T18:44:46.704Z,98849.00
2022-09-20T18:47:16.554Z,98852.00
2022-09-20T18:49:46.589Z,98846.00
2022-09-20T18:52:18.157Z,98856.00
2022-09-20T18:54:48.841Z,98848.00
2022-09-20T18:57:22.114Z,98847.00
2022-09-20T18:59:55.222Z,98855.00
2022-09-20T19:02:39.087Z,98865.00
2022-09-20T19:05:18.005Z,98875.00
2022-09-20T19:07:57.174Z,98867.00
2022-09-20T19:10:36.032Z,98868.00
2022-09-20T19:13:18.895Z,98880.00
2022-09-20T19:16:07.321Z,98878.00
2022-09-20T19:18:58.912Z,98887.00
2022-09-20T19:21:33.908Z,98886.00
2022-09-20T19:24:14.098Z,98879.00
2022-09-20T19:26:44.826Z,98883.00
2022-09-20T19:29:21.915Z,98880.00
2022-09-20T19:31:54.429Z,98880.00
2022-09-20T19:34:26.202Z,98896.00
2022-09-20T19:37:07.391Z,98888.00
2022-09-20T19:39:48.048Z,98889.00
2022-09-20T19:42:26.008Z,98895.00
2022-09-20T19:45:03.911Z,98890.00
2022-09-20T19:47:42.463Z,98892.00
2022-09-20T19:50:19.029Z,98906.00
2022-09-20T19:52:49.972Z,98896.00
2022-09-20T19:55:21.226Z,98903.00
2022-09-20T19:57:51.793Z,98900.00
2022-09-20T20:00:25.506Z,98906.00
2022-09-20T20:02:56.367Z,98909.00
2022-09-20T20:05:27.849Z,98912.00
2022-09-20T20:08:08.533Z,98915.00
2022-09-20T20:10:49.875Z,98914.00
2022-09-20T20:13:38.566Z,98914.00
2022-09-20T20:16:15.304Z,98920.00
2022-09-20T20:18:50.314Z,98922.00
2022-09-20T20:21:27.141Z,98923.00
2022-09-20T20:24:07.584Z,98926.00
2022-09-20T20:26:37.560Z,98928.00
2022-09-20T20:29:07.651Z,98928.00
2022-09-20T20:31:40.284Z,98932.00
2022-09-20T20:34:12.126Z,98932.00
2022-09-20T20:36:41.956Z,98932.00
2022-09-20T20:39:11.772Z,98926.00
2022-09-20T20:41:43.502Z,98931.00
2022-09-20T20:44:14.205Z,98933.00
2022-09-20T20:46:47.651Z,98937.00
2022-09-20T20:49:18.320Z,98933.00
2022-09-20T20:51:48.289Z,98935.00
2022-09-20T20:54:18.762Z,98938.00
2022-09-20T20:56:48.675Z,98942.00
2022-09-20T20:59:18.908Z,98938.00
2022-09-20T21:01:52.020Z,98933.00
2022-09-20T21:04:22.055Z,98944.00
2022-09-20T21:06:52.013Z,98945.00
2022-09-20T21:09:21.829Z,98940.00
2022-09-20T21:11:51.662Z,98943.00
2022-09-20T21:14:21.713Z,98937.00
2022-09-20T21:16:54.865Z,98940.00
2022-09-20T21:19:25.293Z,98946.00
2022-09-20T21:21:55.101Z,98944.00
2022-09-20T21:24:24.922Z,98945.00
2022-09-20T21:26:55.283Z,98938.00
2022-09-20T21:29:25.104Z,98946.00
2022-09-20T21:31:57.526Z,98943.00
2022-09-20T21:34:27.338Z,98945.00
2022-09-20T21:36:57.286Z,98943.00
2022-09-20T21:39:27.127Z,98950.00
2022-09-20T21:41:57.697Z,98962.00
2022-09-20T21:44:27.578Z,98951.00
2022-09-20T21:46:59.998Z,98958.00
2022-09-20T21:49:29.839Z,98954.00
2022-09-20T21:52:00.207Z,98958.00
2022-09-20T21:54:30.522Z,98959.00
2022-09-20T21:57:00.349Z,98957.00
2022-09-20T21:59:30.192Z,98958.00
2022-09-20T22:02:02.675Z,98959.00
2022-09-20T22:04:32.802Z,98954.00
2022-09-20T22:07:04.572Z,98960.00
2022-09-20T22:09:34.415Z,98966.00
2022-09-20T22:12:04.673Z,98967.00
2022-09-20T22:14:35.172Z,98968.00
2022-09-20T22:17:07.768Z,98967.00
2022-09-20T22:19:37.881Z,98960.00
2022-09-20T22:22:07.748Z,98955.00
2022-09-20T22:24:37.583Z,98964.00
2022-09-20T22:27:07.954Z,98963.00
2022-09-20T22:29:37.819Z,98959.00
2022-09-20T22:32:10.330Z,98964.00
2022-09-20T22:34:40.163Z,98968.00
2022-09-20T22:37:10.753Z,98967.00
2022-09-20T22:39:41.597Z,98969.00
2022-09-20T22:42:11.430Z,98966.00
2022-09-20T22:44:41.259Z,98955.00
2022-09-20T22:47:14.145Z,98961.00
2022-09-20T22:49:43.949Z,98964.00
2022-09-20T22:52:13.800Z,98959.00
2022-09-20T22:54:46.768Z,98955.00
2022-09-20T22:57:16.636Z,98961.00
2022-09-20T22:59:46.496Z,98956.00
2022-09-20T23:02:18.950Z,98956.00
2022-09-20T23:04:48.791Z,98966.00
2022-09-20T23:07:18.648Z,98954.00
2022-09-20T23:09:50.214Z,98959.00
2022-09-20T23:12:20.081Z,98968.00
2022-09-20T23:14:49.898Z,98958.00
2022-09-20T23:17:22.431Z,98968.00
2022-09-20T23:19:52.882Z,98969.00
2022-09-20T23:22:22.710Z,98973.00
2022-09-20T23:24:52.664Z,98976.00
2022-09-20T23:27:22.485Z,98974.00
2022-09-20T23:29:52.668Z,98965.00
2022-09-20T23:32:26.001Z,98975.00
2022-09-20T23:34:56.133Z,98971.00
2022-09-20T23:37:26.375Z,98966.00
2022-09-20T23:39:56.187Z,98968.00
2022-09-20T23:42:26.145Z,98973.00
2022-09-20T23:44:55.980Z,98976.00
2022-09-20T23:47:28.386Z,98976.00
2022-09-20T23:49:58.291Z,98983.00
2022-09-20T23:52:28.112Z,98968.00
2022-09-20T23:54:57.937Z,98973.00
2022-09-20T23:57:28.610Z,98971.00
2022-09-20T23:59:59.413Z,98974.00
